Time;durP1;ratioP1;P1;durP2;ratioP2;P2;SDS_P1;SDS_P2;PMS_P1;PMS_P2;Temp;Humidity;BMP_temperature;BMP_pressure;BME280_temperature;BME280_humidity;BME280_pressure;Samples;Min_cycle;Max_cycle;Signal;HPM_P1;HPM_P2
2022/02/18 00:02:21;;;;;;;;;;;;;;;;;;5079443;28;19970;-83
2022/02/18 00:04:46;;;;;;;;;;;;;;;;;;5079142;28;19951;-84
2022/02/18 00:07:11;;;;;;;;;;;;;;;;;;5079233;28;19977;-83
2022/02/18 00:09:38;;;;;;;;;;;;;;;;;;5077480;28;19923;-83
2022/02/18 00:12:04;;;;;;;;;;;;;;;;;;5078872;28;20271;-83
2022/02/18 00:14:30;;;;;;;;;;;;;;;;;;5077462;28;20413;-83
2022/02/18 00:16:56;;;;;;;;;;;;;;;;;;5078132;28;20019;-83
2022/02/18 00:19:21;;;;;;;;;;;;;;;;;;5078500;28;19962;-83
2022/02/18 00:21:49;;;;;;;;;;;;;;;;;;5078855;28;20355;-83
2022/02/18 00:24:14;;;;;;;;;;;;;;;;;;5077008;28;19916;-83
2022/02/18 00:26:40;;;;;;;;;;;;;;;;;;5077412;28;19978;-83
2022/02/18 00:29:06;;;;;;;;;;;;;;;;;;5060428;28;19987;-83
2022/02/18 00:31:31;;;;;;;;;;;;;;;;;;5092556;28;20350;-83
2022/02/18 00:33:57;;;;;;;;;;;;;;;;;;5097205;28;19923;-83
2022/02/18 00:36:22;;;;;;;;;;;;;;;;;;5096986;28;19916;-84
2022/02/18 00:38:48;;;;;;;;;;;;;;;;;;5080213;28;20274;-84
2022/02/18 00:41:13;;;;;;;;;;;;;;;;;;5098155;28;19924;-83
2022/02/18 00:43:39;;;;;;;;;;;;;;;;;;5094931;28;20334;-83
2022/02/18 00:46:04;;;;;;;;;;;;;;;;;;5097621;28;19919;-84
2022/02/18 00:48:29;;;;;;;;;;;;;;;;;;5096125;28;19927;-83
2022/02/18 00:50:55;;;;;;;;;;;;;;;;;;5099760;28;19964;-84
2022/02/18 00:53:21;;;;;;;;;;;;;;;;;;5083542;28;19927;-84
2022/02/18 00:55:46;;;;;;;;;;;;;;;;;;5102729;28;19916;-84
2022/02/18 00:58:11;;;;;;;;;;;;;;;;;;5103153;28;19923;-84
2022/02/18 01:00:37;;;;;;;;;;;;;;;;;;5104513;28;19923;-84
2022/02/18 01:03:02;;;;;;;;;;;;;;;;;;5104392;28;20007;-84
2022/02/18 01:05:29;;;;;;;;;;;;;;;;;;5104069;28;19988;-84
2022/02/18 01:07:54;;;;;;;;;;;;;;;;;;5104523;28;19959;-84
2022/02/18 01:10:21;;;;;;;;;;;;;;;;;;5103840;28;19944;-84
2022/02/18 01:12:47;;;;;;;;;;;;;;;;;;5104256;28;19924;-84
2022/02/18 01:15:12;;;;;;;;;;;;;;;;;;5103880;28;19916;-84
2022/02/18 01:17:38;;;;;;;;;;;;;;;;;;5101973;28;20437;-84
2022/02/18 01:20:04;;;;;;;;;;;;;;;;;;5101570;28;19946;-84
2022/02/18 01:22:29;;;;;;;;;;;;;;;;;;5102852;28;19920;-84
2022/02/18 01:24:55;;;;;;;;;;;;;;;;;;5102772;28;19969;-83
2022/02/18 01:27:20;;;;;;;;;;;;;;;;;;5103203;28;19916;-83
2022/02/18 01:29:45;;;;;;;;;;;;;;;;;;5102499;28;19923;-83
2022/02/18 01:32:12;;;;;;;;;;;;;;;;;;5100757;28;19961;-83
2022/02/18 01:34:38;;;;;;;;;;;;;;;;;;5102568;28;20007;-83
2022/02/18 01:37:04;;;;;;;;;;;;;;;;;;5083516;28;19971;-83
2022/02/18 01:39:29;;;;;;;;;;;;;;;;;;5101748;28;19970;-84
2022/02/18 01:41:55;;;;;;;;;;;;;;;;;;5099911;28;19915;-83
2022/02/18 01:44:35;;;;;;;;;;;;;;;;;;5101359;28;19963;-83
2022/02/18 01:47:00;;;;;;;;;;;;;;;;;;5099748;28;19927;-83
2022/02/18 01:49:25;;;;;;;;;;;;;;;;;;5101722;28;19916;-84
2022/02/18 01:51:51;;;;;;;;;;;;;;;;;;5102116;28;19927;-83
2022/02/18 01:54:16;;;;;;;;;;;;;;;;;;5100643;28;19940;-83
2022/02/18 01:56:41;;;;;;;;;;;;;;;;;;5102652;28;19916;-83
2022/02/18 01:59:09;;;;;;;;;;;;;;;;;;5101997;28;19916;-83
2022/02/18 02:01:34;;;;;;;;;;;;;;;;;;5100352;28;19922;-83
2022/02/18 02:03:59;;;;;;;;;;;;;;;;;;5100978;28;19924;-83
2022/02/18 02:06:25;;;;;;;;;;;;;;;;;;5099481;28;19916;-83
2022/02/18 02:08:50;;;;;;;;;;;;;;;;;;5100246;28;19916;-83
2022/02/18 02:11:15;;;;;;;;;;;;;;;;;;5083384;28;19916;-83
2022/02/18 02:13:45;;;;;;;;;;;;;;;;;;5100352;28;19924;-83
2022/02/18 02:16:17;;;;;;;;;;;;;;;;;;5100545;28;19916;-83
2022/02/18 02:18:44;;;;;;;;;;;;;;;;;;5100173;28;19969;-83
2022/02/18 02:21:13;;;;;;;;;;;;;;;;;;5101616;28;20395;-83
2022/02/18 02:23:41;;;;;;;;;;;;;;;;;;5104836;28;19916;-83
2022/02/18 02:26:10;;;;;;;;;;;;;;;;;;5105611;28;19983;-83
2022/02/18 02:28:36;;;;;;;;;;;;;;;;;;5085750;28;19969;-83
2022/02/18 02:31:02;;;;;;;;;;;;;;;;;;5102139;28;19916;-83
2022/02/18 02:33:28;;;;;;;;;;;;;;;;;;5084197;28;20003;-83
2022/02/18 02:35:55;;;;;;;;;;;;;;;;;;5100823;28;19916;-83
2022/02/18 02:38:21;;;;;;;;;;;;;;;;;;5101037;28;20388;-83
2022/02/18 02:40:47;;;;;;;;;;;;;;;;;;5100105;28;20002;-83
2022/02/18 02:43:14;;;;;;;;;;;;;;;;;;5099578;28;19954;-83
2022/02/18 02:45:41;;;;;;;;;;;;;;;;;;5099522;28;19916;-83
2022/02/18 02:48:06;;;;;;;;;;;;;;;;;;5099332;28;19938;-83
2022/02/18 02:50:47;;;;;;;;;;;;;;;;;;5100542;28;19924;-83
2022/02/18 02:53:12;;;;;;;;;;;;;;;;;;5098291;28;19986;-82
2022/02/18 02:55:39;;;;;;;;;;;;;;;;;;5098160;28;19938;-82
2022/02/18 02:58:04;;;;;;;;;;;;;;;;;;5099431;28;19916;-83
2022/02/18 03:00:30;;;;;;;;;;;;;;;;;;5092150;28;19917;-83
2022/02/18 03:02:55;;;;;;;;;;;;;;;;;;5077008;28;19924;-83
2022/02/18 03:05:33;;;;;;;;;;;;;;;;;;5062535;28;19963;-83
2022/02/18 03:08:03;;;;;;;;;;;;;;;;;;5077287;28;19922;-83
2022/02/18 03:10:29;;;;;;;;;;;;;;;;;;5077010;28;19947;-83
2022/02/18 03:12:56;;;;;;;;;;;;;;;;;;5076790;28;20301;-79
2022/02/18 03:15:22;;;;;;;;;;;;;;;;;;5096834;28;20011;-81
2022/02/18 03:17:48;;;;;;;;;;;;;;;;;;5118860;28;19959;-81
2022/02/18 03:20:26;;;;;;;;;;;;;;;;;;5117896;28;19916;-80
2022/02/18 03:22:52;;;;;;;;;;;;;;;;;;5118050;28;19915;-82
2022/02/18 03:25:17;;;;;;;;;;;;;;;;;;5117465;28;19916;-83
2022/02/18 03:27:43;;;;;;;;;;;;;;;;;;5118918;28;19916;-83
2022/02/18 03:30:10;;;;;;;;;;;;;;;;;;5128399;28;19916;-83
2022/02/18 03:32:36;;;;;;;;;;;;;;;;;;5124173;28;19920;-83
2022/02/18 03:35:04;;;;;;;;;;;;;;;;;;5126226;28;19915;-84
2022/02/18 03:37:35;;;;;;;;;;;;;;;;;;5110375;28;19915;-83
2022/02/18 03:40:09;;;;;;;;;;;;;;;;;;5110907;28;19919;-84
2022/02/18 03:42:35;;;;;;;;;;;;;;;;;;5109486;28;20014;-84
2022/02/18 03:45:02;;;;;;;;;;;;;;;;;;5126011;28;19931;-84
2022/02/18 03:47:27;;;;;;;;;;;;;;;;;;5127279;28;19999;-84
2022/02/18 03:49:57;;;;;;;;;;;;;;;;;;5126975;28;19916;-84
2022/02/18 03:52:22;;;;;;;;;;;;;;;;;;5121944;28;19920;-80
2022/02/18 03:54:48;;;;;;;;;;;;;;;;;;5118576;28;19922;-83
2022/02/18 03:57:13;;;;;;;;;;;;;;;;;;5119912;28;20377;-83
2022/02/18 03:59:39;;;;;;;;;;;;;;;;;;5103999;28;19941;-83
2022/02/18 04:02:05;;;;;;;;;;;;;;;;;;5104442;28;20378;-83
2022/02/18 04:04:30;;;;;;;;;;;;;;;;;;5096798;28;19938;-80
2022/02/18 04:07:14;;;;;;;;;;;;;;;;;;5094950;28;20290;-80
2022/02/18 04:09:47;;;;;;;;;;;;;;;;;;5095303;28;19927;-80
2022/02/18 04:12:33;;;;;;;;;;;;;;;;;;5095160;28;19920;-80
2022/02/18 04:15:02;;;;;;;;;;;;;;;;;;5095087;28;19916;-81
2022/02/18 04:17:32;;;;;;;;;;;;;;;;;;5095084;28;19916;-80
2022/02/18 04:20:05;;;;;;;;;;;;;;;;;;5094597;28;20061;-80
2022/02/18 04:22:40;;;;;;;;;;;;;;;;;;5094845;28;19946;-80
2022/02/18 04:25:07;;;;;;;;;;;;;;;;;;5094647;28;19923;-80
2022/02/18 04:27:32;;;;;;;;;;;;;;;;;;5096222;28;19916;-80
2022/02/18 04:29:57;;;;;;;;;;;;;;;;;;5095477;28;20281;-80
2022/02/18 04:32:23;;;;;;;;;;;;;;;;;;5094213;28;20038;-80
2022/02/18 04:34:48;;;;;;;;;;;;;;;;;;5095960;28;19970;-80
2022/02/18 04:37:13;;;;;;;;;;;;;;;;;;5096409;28;19920;-80
2022/02/18 04:39:39;;;;;;;;;;;;;;;;;;5096636;28;19920;-80
2022/02/18 04:42:04;;;;;;;;;;;;;;;;;;5095617;28;19916;-80
2022/02/18 04:44:30;;;;;;;;;;;;;;;;;;5096146;28;19921;-80
2022/02/18 04:46:55;;;;;;;;;;;;;;;;;;5095806;28;19923;-80
2022/02/18 04:49:21;;;;;;;;;;;;;;;;;;5096521;28;19916;-80
2022/02/18 04:51:49;;;;;;;;;;;;;;;;;;5095741;28;19973;-80
2022/02/18 04:54:14;;;;;;;;;;;;;;;;;;5094702;28;20490;-80
2022/02/18 04:56:39;;;;;;;;;;;;;;;;;;5096059;28;19967;-80
2022/02/18 04:59:04;;;;;;;;;;;;;;;;;;5094576;28;19916;-80
2022/02/18 05:01:30;;;;;;;;;;;;;;;;;;5095905;28;19923;-80
2022/02/18 05:03:55;;;;;;;;;;;;;;;;;;5095252;28;19916;-81
2022/02/18 05:06:20;;;;;;;;;;;;;;;;;;5095815;28;19923;-80
2022/02/18 05:08:45;;;;;;;;;;;;;;;;;;5095757;28;20377;-81
2022/02/18 05:11:11;;;;;;;;;;;;;;;;;;5094915;28;19916;-80
2022/02/18 05:13:36;;;;;;;;;;;;;;;;;;5095623;28;19934;-81
2022/02/18 05:16:02;;;;;;;;;;;;;;;;;;5095902;28;19927;-81
2022/02/18 05:18:27;;;;;;;;;;;;;;;;;;5095547;28;19917;-81
2022/02/18 05:20:52;;;;;;;;;;;;;;;;;;5094285;28;19922;-80
2022/02/18 05:23:18;;;;;;;;;;;;;;;;;;5095325;28;19916;-80
2022/02/18 05:25:43;;;;;;;;;;;;;;;;;;5094517;28;19956;-81
2022/02/18 05:28:09;;;;;;;;;;;;;;;;;;5096986;28;19950;-80
2022/02/18 05:30:34;;;;;;;;;;;;;;;;;;5096937;28;19916;-81
2022/02/18 05:33:00;;;;;;;;;;;;;;;;;;5096790;28;19920;-81
2022/02/18 05:35:25;;;;;;;;;;;;;;;;;;5096044;28;19920;-81
2022/02/18 05:37:50;;;;;;;;;;;;;;;;;;5076206;28;19916;-81
2022/02/18 05:40:16;;;;;;;;;;;;;;;;;;5075804;28;19999;-81
2022/02/18 05:42:41;;;;;;;;;;;;;;;;;;5078435;28;19917;-81
2022/02/18 05:45:10;;;;;;;;;;;;;;;;;;5079256;28;19927;-81
2022/02/18 05:47:37;;;;;;;;;;;;;;;;;;5079224;28;19938;-81
2022/02/18 05:50:04;;;;;;;;;;;;;;;;;;5077934;28;19920;-81
2022/02/18 05:52:30;;;;;;;;;;;;;;;;;;5077189;28;19925;-81
2022/02/18 05:54:55;;;;;;;;;;;;;;;;;;5077026;28;20306;-81
2022/02/18 05:57:20;;;;;;;;;;;;;;;;;;5079422;28;19966;-80
2022/02/18 05:59:46;;;;;;;;;;;;;;;;;;5078907;28;19916;-81
2022/02/18 06:02:11;;;;;;;;;;;;;;;;;;5098241;28;19916;-81
2022/02/18 06:04:36;;;;;;;;;;;;;;;;;;5098868;28;19916;-81
2022/02/18 06:07:02;;;;;;;;;;;;;;;;;;5099128;28;19999;-80
2022/02/18 06:09:27;;;;;;;;;;;;;;;;;;5098825;28;19923;-81
2022/02/18 06:11:52;;;;;;;;;;;;;;;;;;5098293;28;20380;-81
2022/02/18 06:14:18;;;;;;;;;;;;;;;;;;5098196;28;19930;-81
2022/02/18 06:16:43;;;;;;;;;;;;;;;;;;5098603;28;19976;-80
2022/02/18 06:19:09;;;;;;;;;;;;;;;;;;5098849;28;19946;-80
2022/02/18 06:21:35;;;;;;;;;;;;;;;;;;5098912;28;19938;-81
2022/02/18 06:24:00;;;;;;;;;;;;;;;;;;5098201;28;20420;-80
2022/02/18 06:26:26;;;;;;;;;;;;;;;;;;5098158;28;19916;-80
2022/02/18 06:28:51;;;;;;;;;;;;;;;;;;5097309;28;20365;-81
2022/02/18 06:31:18;;;;;;;;;;;;;;;;;;5096193;28;19920;-81
2022/02/18 06:33:47;;;;;;;;;;;;;;;;;;5096977;28;20338;-80
2022/02/18 06:36:12;;;;;;;;;;;;;;;;;;5096061;28;20400;-81
2022/02/18 06:38:40;;;;;;;;;;;;;;;;;;5098134;28;19916;-80
2022/02/18 06:41:05;;;;;;;;;;;;;;;;;;5097821;28;19916;-79
2022/02/18 06:43:30;;;;;;;;;;;;;;;;;;5098226;28;19922;-81
2022/02/18 06:45:55;;;;;;;;;;;;;;;;;;5097803;28;19916;-80
2022/02/18 06:48:22;;;;;;;;;;;;;;;;;;5097488;28;19916;-80
2022/02/18 06:50:47;;;;;;;;;;;;;;;;;;5100241;28;19920;-83
2022/02/18 06:53:13;;;;;;;;;;;;;;;;;;5098447;28;19927;-79
2022/02/18 06:55:39;;;;;;;;;;;;;;;;;;5096535;28;19920;-77
2022/02/18 06:58:04;;;;;;;;;;;;;;;;;;5079824;28;19920;-78
2022/02/18 07:00:30;;;;;;;;;;;;;;;;;;5100592;28;19916;-78
2022/02/18 07:02:55;;;;;;;;;;;;;;;;;;5098543;28;19916;-79
2022/02/18 07:05:21;;;;;;;;;;;;;;;;;;5100665;28;20286;-78
2022/02/18 07:07:46;;;;;;;;;;;;;;;;;;5099575;28;20007;-78
2022/02/18 07:10:13;;;;;;;;;;;;;;;;;;5099206;28;19916;-78
2022/02/18 07:12:38;;;;;;;;;;;;;;;;;;5099482;28;19955;-78
2022/02/18 07:15:05;;;;;;;;;;;;;;;;;;5099624;28;20290;-78
2022/02/18 07:17:30;;;;;;;;;;;;;;;;;;5099981;28;19983;-78
2022/02/18 07:19:56;;;;;;;;;;;;;;;;;;5097821;28;19960;-78
2022/02/18 07:22:22;;;;;;;;;;;;;;;;;;5098274;28;20314;-78
2022/02/18 07:24:48;;;;;;;;;;;;;;;;;;5098196;28;19922;-78
2022/02/18 07:27:13;;;;;;;;;;;;;;;;;;5095624;28;20672;-77
2022/02/18 07:29:39;;;;;;;;;;;;;;;;;;5094981;28;19920;-78
2022/02/18 07:32:05;;;;;;;;;;;;;;;;;;5108585;28;20412;-79
2022/02/18 07:34:30;;;;;;;;;;;;;;;;;;5118789;28;19916;-81
2022/02/18 07:36:55;;;;;;;;;;;;;;;;;;5121131;28;20010;-82
2022/02/18 07:39:21;;;;;;;;;;;;;;;;;;5119311;28;19969;-81
2022/02/18 07:41:46;;;;;;;;;;;;;;;;;;5120805;28;20381;-81
2022/02/18 07:44:11;;;;;;;;;;;;;;;;;;5117860;28;19916;-78
2022/02/18 07:46:37;;;;;;;;;;;;;;;;;;5117202;28;19912;-80
2022/02/18 07:49:02;;;;;;;;;;;;;;;;;;5101913;28;19916;-81
2022/02/18 07:51:28;;;;;;;;;;;;;;;;;;5075336;28;19928;-81
2022/02/18 07:53:53;;;;;;;;;;;;;;;;;;5076377;28;19927;-79
2022/02/18 07:56:18;;;;;;;;;;;;;;;;;;5076567;28;19916;-79
2022/02/18 07:58:44;;;;;;;;;;;;;;;;;;5076028;28;19955;-79
2022/02/18 08:01:17;;;;;;;;;;;;;;;;;;5086457;28;19942;-78
2022/02/18 08:03:42;;;;;;;;;;;;;;;;;;5095701;28;20003;-79
2022/02/18 08:06:08;;;;;;;;;;;;;;;;;;5098255;28;19966;-78
2022/02/18 08:08:34;;;;;;;;;;;;;;;;;;5098897;28;19938;-79
2022/02/18 08:11:00;;;;;;;;;;;;;;;;;;5096882;28;20407;-79
2022/02/18 08:13:25;;;;;;;;;;;;;;;;;;5097301;28;19920;-78
2022/02/18 08:15:51;;;;;;;;;;;;;;;;;;5096304;28;20377;-79
2022/02/18 08:18:19;;;;;;;;;;;;;;;;;;5096923;28;19920;-83
2022/02/18 08:20:47;;;;;;;;;;;;;;;;;;5096878;28;19970;-80
2022/02/18 08:23:12;;;;;;;;;;;;;;;;;;5096899;28;19920;-80
2022/02/18 08:25:38;;;;;;;;;;;;;;;;;;5097283;28;19923;-81
2022/02/18 08:28:03;;;;;;;;;;;;;;;;;;5096652;28;20014;-85
2022/02/18 08:30:30;;;;;;;;;;;;;;;;;;5107747;28;20236;-82
2022/02/18 08:32:56;;;;;;;;;;;;;;;;;;5118783;28;19973;-80
2022/02/18 08:35:22;;;;;;;;;;;;;;;;;;5098590;28;19965;-79
2022/02/18 08:37:47;;;;;;;;;;;;;;;;;;5100551;28;19915;-79
2022/02/18 08:40:12;;;;;;;;;;;;;;;;;;5101141;28;19916;-82
2022/02/18 08:42:38;;;;;;;;;;;;;;;;;;5099670;28;19958;-80
2022/02/18 08:45:04;;;;;;;;;;;;;;;;;;5118249;28;19962;-84
2022/02/18 08:47:29;;;;;;;;;;;;;;;;;;5118785;28;19919;-78
2022/02/18 08:49:56;;;;;;;;;;;;;;;;;;5119669;28;19922;-82
2022/02/18 08:52:22;;;;;;;;;;;;;;;;;;5120071;28;19920;-81
2022/02/18 08:54:47;;;;;;;;;;;;;;;;;;5115241;28;19916;-79
2022/02/18 08:57:12;;;;;;;;;;;;;;;;;;5116238;28;19915;-78
2022/02/18 08:59:39;;;;;;;;;;;;;;;;;;5116692;28;19916;-78
2022/02/18 09:02:04;;;;;;;;;;;;;;;;;;5112276;28;19916;-81
2022/02/18 09:04:29;;;;;;;;;;;;;;;;;;5097702;28;20018;-79
2022/02/18 09:06:55;;;;;;;;;;;;;;;;;;5095060;28;19927;-78
2022/02/18 09:09:21;;;;;;;;;;;;;;;;;;5097397;28;19916;-79
2022/02/18 09:11:46;;;;;;;;;;;;;;;;;;5098779;28;19976;-79
2022/02/18 09:14:11;;;;;;;;;;;;;;;;;;5097747;28;20366;-81
2022/02/18 09:16:42;;;;;;;;;;;;;;;;;;5098131;28;19916;-80
2022/02/18 09:19:07;;;;;;;;;;;;;;;;;;5101488;28;20378;-80
2022/02/18 09:21:33;;;;;;;;;;;;;;;;;;5100892;28;19973;-85
2022/02/18 09:23:58;;;;;;;;;;;;;;;;;;5085048;28;19920;-82
2022/02/18 09:26:26;;;;;;;;;;;;;;;;;;5104050;28;19925;-85
2022/02/18 09:28:51;;;;;;;;;;;;;;;;;;5085639;28;19912;-84
2022/02/18 09:31:17;;;;;;;;;;;;;;;;;;5101674;28;19923;-84
2022/02/18 09:33:42;;;;;;;;;;;;;;;;;;5100318;28;19920;-85
2022/02/18 09:36:07;;;;;;;;;;;;;;;;;;5104657;28;19980;-85
2022/02/18 09:38:33;;;;;;;;;;;;;;;;;;5103294;28;19916;-84
2022/02/18 09:40:59;;;;;;;;;;;;;;;;;;5101832;28;19920;-84
2022/02/18 09:43:24;;;;;;;;;;;;;;;;;;5085602;28;19917;-85
2022/02/18 09:45:49;;;;;;;;;;;;;;;;;;5102125;28;20327;-85
2022/02/18 09:48:17;;;;;;;;;;;;;;;;;;5101695;28;19923;-84
2022/02/18 09:50:42;;;;;;;;;;;;;;;;;;5100266;28;19928;-85
2022/02/18 09:53:08;;;;;;;;;;;;;;;;;;5084497;28;19942;-85
2022/02/18 09:55:37;;;;;;;;;;;;;;;;;;5101774;28;19959;-84
2022/02/18 09:58:02;;;;;;;;;;;;;;;;;;5101111;28;19938;-81
2022/02/18 10:00:27;;;;;;;;;;;;;;;;;;5103453;28;19916;-81
2022/02/18 10:02:53;;;;;;;;;;;;;;;;;;5103861;28;19923;-81
2022/02/18 10:05:19;;;;;;;;;;;;;;;;;;5103743;28;20262;-81
2022/02/18 10:08:03;;;;;;;;;;;;;;;;;;5103324;28;19961;-81
2022/02/18 10:10:28;;;;;;;;;;;;;;;;;;5102695;28;19920;-81
2022/02/18 10:12:54;;;;;;;;;;;;;;;;;;5102581;28;20061;-82
2022/02/18 10:15:19;;;;;;;;;;;;;;;;;;5101457;28;19920;-82
2022/02/18 10:17:47;;;;;;;;;;;;;;;;;;5100619;28;20365;-84
2022/02/18 10:20:13;;;;;;;;;;;;;;;;;;5103476;28;20035;-85
2022/02/18 10:22:38;;;;;;;;;;;;;;;;;;5100419;28;19955;-79
2022/02/18 10:25:09;;;;;;;;;;;;;;;;;;5100742;28;19969;-79
2022/02/18 10:27:43;;;;;;;;;;;;;;;;;;5099377;28;19952;-81
2022/02/18 10:30:08;;;;;;;;;;;;;;;;;;5103202;28;19998;-79
2022/02/18 10:32:40;;;;;;;;;;;;;;;;;;5120372;28;20368;-83
2022/02/18 10:35:06;;;;;;;;;;;;;;;;;;5119515;28;20311;-79
2022/02/18 10:37:32;;;;;;;;;;;;;;;;;;5120993;28;19915;-82
2022/02/18 10:40:10;;;;;;;;;;;;;;;;;;5120758;28;20476;-81
2022/02/18 10:42:36;;;;;;;;;;;;;;;;;;5121505;28;19917;-82
2022/02/18 10:45:08;;;;;;;;;;;;;;;;;;5120491;28;19924;-82
2022/02/18 10:47:33;;;;;;;;;;;;;;;;;;5120242;28;19915;-83
2022/02/18 10:49:59;;;;;;;;;;;;;;;;;;5120370;28;20350;-82
2022/02/18 10:52:25;;;;;;;;;;;;;;;;;;5121043;28;19963;-82
2022/02/18 10:54:50;;;;;;;;;;;;;;;;;;5121314;28;19992;-82
2022/02/18 10:57:21;;;;;;;;;;;;;;;;;;5119174;28;20373;-83
2022/02/18 10:59:48;;;;;;;;;;;;;;;;;;5119346;28;19938;-81
2022/02/18 11:02:14;;;;;;;;;;;;;;;;;;5095018;28;20382;-86
2022/02/18 11:04:40;;;;;;;;;;;;;;;;;;5078065;28;19917;-80
2022/02/18 11:07:15;;;;;;;;;;;;;;;;;;5078685;28;20007;-82
2022/02/18 11:09:43;;;;;;;;;;;;;;;;;;5079587;28;19927;-82
2022/02/18 11:12:10;;;;;;;;;;;;;;;;;;5085616;28;19923;-83
2022/02/18 11:14:37;;;;;;;;;;;;;;;;;;5084229;28;19952;-81
2022/02/18 11:17:02;;;;;;;;;;;;;;;;;;5082256;28;19916;-80
2022/02/18 11:19:28;;;;;;;;;;;;;;;;;;5099889;28;19923;-79
2022/02/18 11:21:53;;;;;;;;;;;;;;;;;;5099148;28;19973;-81
2022/02/18 11:24:21;;;;;;;;;;;;;;;;;;5090465;28;19917;-82
2022/02/18 11:26:48;;;;;;;;;;;;;;;;;;5080412;28;19916;-83
2022/02/18 11:29:14;;;;;;;;;;;;;;;;;;5079103;28;19916;-80
2022/02/18 11:31:39;;;;;;;;;;;;;;;;;;5086660;28;19923;-80
2022/02/18 11:34:23;;;;;;;;;;;;;;;;;;5099170;28;19920;-82
2022/02/18 11:37:09;;;;;;;;;;;;;;;;;;5096442;28;20290;-79
2022/02/18 11:39:49;;;;;;;;;;;;;;;;;;5040145;28;19917;-80
2022/02/18 11:42:18;;;;;;;;;;;;;;;;;;5089094;28;20266;-83
2022/02/18 11:44:43;;;;;;;;;;;;;;;;;;5098183;28;19916;-81
2022/02/18 11:47:16;;;;;;;;;;;;;;;;;;5094833;28;20344;-78
2022/02/18 11:49:42;;;;;;;;;;;;;;;;;;5077552;28;19954;-79
2022/02/18 11:52:09;;;;;;;;;;;;;;;;;;5094838;28;19920;-80
2022/02/18 11:54:36;;;;;;;;;;;;;;;;;;5095819;28;19920;-79
2022/02/18 11:57:03;;;;;;;;;;;;;;;;;;5093860;28;20035;-76
2022/02/18 11:59:43;;;;;;;;;;;;;;;;;;5093682;28;19920;-77
2022/02/18 12:02:09;;;;;;;;;;;;;;;;;;5095230;28;19916;-77
2022/02/18 12:04:36;;;;;;;;;;;;;;;;;;5094109;28;19923;-77
2022/02/18 12:07:13;;;;;;;;;;;;;;;;;;5095448;28;20010;-77
2022/02/18 12:09:47;;;;;;;;;;;;;;;;;;5095585;28;20354;-76
2022/02/18 12:12:20;;;;;;;;;;;;;;;;;;5093772;28;19927;-77
2022/02/18 12:14:48;;;;;;;;;;;;;;;;;;5093797;28;20293;-76
2022/02/18 12:17:15;;;;;;;;;;;;;;;;;;5092578;28;19920;-76
2022/02/18 12:19:40;;;;;;;;;;;;;;;;;;5093819;28;19920;-76
2022/02/18 12:22:05;;;;;;;;;;;;;;;;;;5092135;28;19916;-76
2022/02/18 12:24:31;;;;;;;;;;;;;;;;;;5111096;28;19986;-76
2022/02/18 12:27:15;;;;;;;;;;;;;;;;;;5112522;28;20335;-76
2022/02/18 12:29:40;;;;;;;;;;;;;;;;;;5112599;28;19924;-76
2022/02/18 12:32:05;;;;;;;;;;;;;;;;;;5114184;28;19904;-76
2022/02/18 12:34:33;;;;;;;;;;;;;;;;;;5114241;28;19920;-77
2022/02/18 12:36:58;;;;;;;;;;;;;;;;;;5114254;28;20353;-76
2022/02/18 12:39:36;;;;;;;;;;;;;;;;;;5113969;28;19968;-76
2022/02/18 12:42:13;;;;;;;;;;;;;;;;;;5113775;28;20270;-76
2022/02/18 12:44:46;;;;;;;;;;;;;;;;;;5073506;28;19916;-77
2022/02/18 12:47:11;;;;;;;;;;;;;;;;;;5073446;28;19920;-76
2022/02/18 12:49:40;;;;;;;;;;;;;;;;;;5073567;28;19978;-77
2022/02/18 12:52:09;;;;;;;;;;;;;;;;;;5075631;28;20290;-77
2022/02/18 12:54:49;;;;;;;;;;;;;;;;;;5077483;28;19916;-76
2022/02/18 12:57:15;;;;;;;;;;;;;;;;;;5076237;28;20015;-76
2022/02/18 12:59:43;;;;;;;;;;;;;;;;;;5077261;28;19921;-77
2022/02/18 13:02:09;;;;;;;;;;;;;;;;;;5078813;28;20281;-77
2022/02/18 13:04:34;;;;;;;;;;;;;;;;;;5096249;28;19916;-77
2022/02/18 13:06:59;;;;;;;;;;;;;;;;;;5096371;28;19920;-77
2022/02/18 13:09:28;;;;;;;;;;;;;;;;;;5097464;28;19916;-76
2022/02/18 13:11:54;;;;;;;;;;;;;;;;;;5097313;28;20010;-77
2022/02/18 13:14:23;;;;;;;;;;;;;;;;;;5097351;28;20382;-77
2022/02/18 13:16:48;;;;;;;;;;;;;;;;;;5097397;28;19923;-76
2022/02/18 13:19:13;;;;;;;;;;;;;;;;;;5097066;28;20281;-77
2022/02/18 13:21:39;;;;;;;;;;;;;;;;;;5095799;28;19973;-77
2022/02/18 13:24:05;;;;;;;;;;;;;;;;;;5095943;28;19923;-76
2022/02/18 13:26:30;;;;;;;;;;;;;;;;;;5097139;28;20366;-77
2022/02/18 13:28:59;;;;;;;;;;;;;;;;;;5097136;28;19943;-76
2022/02/18 13:31:24;;;;;;;;;;;;;;;;;;5097219;28;19916;-76
2022/02/18 13:33:51;;;;;;;;;;;;;;;;;;5096561;28;19947;-77
2022/02/18 13:36:20;;;;;;;;;;;;;;;;;;5096165;28;19916;-76
2022/02/18 13:38:49;;;;;;;;;;;;;;;;;;5097058;28;19916;-77
2022/02/18 13:41:32;;;;;;;;;;;;;;;;;;5096921;28;20007;-77
2022/02/18 13:43:59;;;;;;;;;;;;;;;;;;5097020;28;19922;-76
2022/02/18 13:46:31;;;;;;;;;;;;;;;;;;5096492;28;19920;-77
2022/02/18 13:48:58;;;;;;;;;;;;;;;;;;5096716;28;20272;-77
2022/02/18 13:51:25;;;;;;;;;;;;;;;;;;5096650;28;19941;-76
2022/02/18 13:53:51;;;;;;;;;;;;;;;;;;5078542;28;19984;-76
2022/02/18 13:56:19;;;;;;;;;;;;;;;;;;5096473;28;20384;-76
2022/02/18 13:58:44;;;;;;;;;;;;;;;;;;5095567;28;19916;-77
2022/02/18 14:01:11;;;;;;;;;;;;;;;;;;5096567;28;19920;-77
2022/02/18 14:03:51;;;;;;;;;;;;;;;;;;5096294;28;19962;-77
2022/02/18 14:06:16;;;;;;;;;;;;;;;;;;5096423;28;19923;-77
2022/02/18 14:08:41;;;;;;;;;;;;;;;;;;5095510;28;19915;-76
2022/02/18 14:11:08;;;;;;;;;;;;;;;;;;5096236;28;19916;-76
2022/02/18 14:13:33;;;;;;;;;;;;;;;;;;5096084;28;19920;-77
2022/02/18 14:16:08;;;;;;;;;;;;;;;;;;5096091;28;19923;-76
2022/02/18 14:18:33;;;;;;;;;;;;;;;;;;5096265;28;19916;-76
2022/02/18 14:21:00;;;;;;;;;;;;;;;;;;5097262;28;20273;-77
2022/02/18 14:23:29;;;;;;;;;;;;;;;;;;5096296;28;19923;-76
2022/02/18 14:25:54;;;;;;;;;;;;;;;;;;5095998;28;19947;-77
2022/02/18 14:28:20;;;;;;;;;;;;;;;;;;5096079;28;19920;-78
2022/02/18 14:30:46;;;;;;;;;;;;;;;;;;5098335;28;20053;-77
2022/02/18 14:33:27;;;;;;;;;;;;;;;;;;5097208;28;20026;-77
2022/02/18 14:35:54;;;;;;;;;;;;;;;;;;5097615;28;20392;-78
2022/02/18 14:38:19;;;;;;;;;;;;;;;;;;5109387;28;19916;-76
2022/02/18 14:40:47;;;;;;;;;;;;;;;;;;5115977;28;19937;-75
2022/02/18 14:43:13;;;;;;;;;;;;;;;;;;5116336;28;19923;-76
2022/02/18 14:45:38;;;;;;;;;;;;;;;;;;5111881;28;20361;-76
2022/02/18 14:48:04;;;;;;;;;;;;;;;;;;5095539;28;19916;-77
2022/02/18 14:50:31;;;;;;;;;;;;;;;;;;5095524;28;19920;-77
2022/02/18 14:52:58;;;;;;;;;;;;;;;;;;5096812;28;19955;-77
2022/02/18 14:55:24;;;;;;;;;;;;;;;;;;5096144;28;19924;-76
2022/02/18 14:57:50;;;;;;;;;;;;;;;;;;5095341;28;19916;-76
2022/02/18 15:00:16;;;;;;;;;;;;;;;;;;5095448;28;19959;-76
2022/02/18 15:02:41;;;;;;;;;;;;;;;;;;5093035;28;20349;-76
2022/02/18 15:05:07;;;;;;;;;;;;;;;;;;5095451;28;19960;-76
2022/02/18 15:07:32;;;;;;;;;;;;;;;;;;5094122;28;20011;-76
2022/02/18 15:09:57;;;;;;;;;;;;;;;;;;5094818;28;20408;-76
2022/02/18 15:12:23;;;;;;;;;;;;;;;;;;5095308;28;19974;-76
2022/02/18 15:14:48;;;;;;;;;;;;;;;;;;5094494;28;19916;-76
2022/02/18 15:17:15;;;;;;;;;;;;;;;;;;5095088;28;19916;-76
2022/02/18 15:19:40;;;;;;;;;;;;;;;;;;5095044;28;19926;-76
2022/02/18 15:22:06;;;;;;;;;;;;;;;;;;5094930;28;19915;-75
2022/02/18 15:24:31;;;;;;;;;;;;;;;;;;5094961;28;20073;-75
2022/02/18 15:26:57;;;;;;;;;;;;;;;;;;5094896;28;20369;-75
2022/02/18 15:34:50;;;;;;;;;;;;;;;;;;5094022;28;19920;-76
2022/02/18 15:37:15;;;;;;;;;;;;;;;;;;5094612;28;19916;-76
2022/02/18 15:42:25;;;;;;;;;;;;;;;;;;5094914;28;20374;-75
2022/02/18 15:44:51;;;;;;;;;;;;;;;;;;5094333;28;19923;-76
2022/02/18 15:47:18;;;;;;;;;;;;;;;;;;5076136;28;20365;-76
2022/02/18 15:49:44;;;;;;;;;;;;;;;;;;5094450;28;20266;-76
2022/02/18 15:52:12;;;;;;;;;;;;;;;;;;5092843;28;19962;-76
2022/02/18 15:54:40;;;;;;;;;;;;;;;;;;5086606;28;19920;-76
2022/02/18 15:57:07;;;;;;;;;;;;;;;;;;5084604;28;19924;-76
2022/02/18 15:59:33;;;;;;;;;;;;;;;;;;5083661;28;20015;-76
2022/02/18 16:01:59;;;;;;;;;;;;;;;;;;5083374;28;20397;-76
2022/02/18 16:04:33;;;;;;;;;;;;;;;;;;5084891;28;20310;-77
2022/02/18 16:06:59;;;;;;;;;;;;;;;;;;5083654;28;19926;-77
2022/02/18 16:09:24;;;;;;;;;;;;;;;;;;5083092;28;19919;-76
2022/02/18 16:11:50;;;;;;;;;;;;;;;;;;5084577;28;19964;-76
2022/02/18 16:14:15;;;;;;;;;;;;;;;;;;5082997;28;20391;-76
2022/02/18 16:16:41;;;;;;;;;;;;;;;;;;5083167;28;19920;-76
2022/02/18 16:19:06;;;;;;;;;;;;;;;;;;5083352;28;20369;-75
2022/02/18 16:21:32;;;;;;;;;;;;;;;;;;5064166;28;19917;-76
2022/02/18 16:23:58;;;;;;;;;;;;;;;;;;5074203;28;19981;-76
2022/02/18 16:26:26;;;;;;;;;;;;;;;;;;5083343;28;20381;-76
2022/02/18 16:28:52;;;;;;;;;;;;;;;;;;5078335;28;19916;-76
2022/02/18 16:31:18;;;;;;;;;;;;;;;;;;5073604;28;19923;-76
2022/02/18 16:33:44;;;;;;;;;;;;;;;;;;5073664;28;19921;-77
2022/02/18 16:36:09;;;;;;;;;;;;;;;;;;5077145;28;19920;-76
2022/02/18 16:38:35;;;;;;;;;;;;;;;;;;5094004;28;19915;-76
2022/02/18 16:41:00;;;;;;;;;;;;;;;;;;5093786;28;19920;-76
2022/02/18 16:43:25;;;;;;;;;;;;;;;;;;5093872;28;19923;-76
2022/02/18 16:45:53;;;;;;;;;;;;;;;;;;5092414;28;20327;-76
2022/02/18 16:48:18;;;;;;;;;;;;;;;;;;5093103;28;19923;-76
2022/02/18 16:50:44;;;;;;;;;;;;;;;;;;5075442;28;20366;-76
2022/02/18 16:53:09;;;;;;;;;;;;;;;;;;5093702;28;20014;-76